Warthen, GA

5:37 PM EST on February 14, 2016 (GMT -0500)
Kaolin | | Change Station
CLOSE
Current Station
Airport
Location: Sandersville Kaolin Field Air,
Elevation: 436 ft
Nearby Weather Stations

Elev 436 ft 32.97 °N, 82.84 °W | Updated 22 minutes ago

Clear
Clear
50 °F
Feels Like 50 °F
N
10
Wind Variable Wind from ESE

Today
High -- | Low -- °F
--% Chance of Precip.
Yesterday
High -- | Low -- °F
Precip. -- in
Pressure 30.28 in
Visibility 10.0 miles
Clouds Clear
Dew Point 25 °F
Humidity 38%
Rainfall 0.00 in
Snow Depth Not available.
7:16 AM 6:15 PM
Waxing Crescent, 46% visible
METAR KOKZ 142215Z AUTO 11009KT 10SM CLR 10/M04 A3028 RMK AO2 T00981041
Pressure 30.28 in
Visibility 10.0 miles
Clouds Clear
Dew Point 25 °F
Humidity 38%
Rainfall 0.00 in
Snow Depth Not available.
7:16 AM 6:15 PM
Waxing Crescent, 46% visible
METAR KOKZ 142215Z AUTO 11009KT 10SM CLR 10/M04 A3028 RMK AO2 T00981041

10-Day Weather Forecast

Almanac

Astronomy

Feb. 14, 2016 Rise Set
Actual Time
Civil Twilight
Nautical Twilight
Astronomical Twilight
Moon
Length of Visible Light
Length of Day
Tomorrow will be .
, % of the Moon is Illuminated

Today's Extremes

State Highs State Lows

Community

WunderPhotos

Upload Photos

1,892,899 photos uploaded!

WunderBlog® & News

Nearby

Air Quality

  Air Quality AQ Index Pollutant
Not available.

Snow Depth

Station Depth Elevation

Earthquake Activity

City Distance Mag. Time & Date
Minimum magnitude displayed is 2.5.

Coastal Water Temperatures

Place Temperature

Stations

Nearby Weather Stations

Station Location Temp. Windchill Dew Point Humidity Wind Precip. Elev Updated Type
                   

Watches & Warnings

There are currently no watches in effect.